sensor_id;sensor_type;location;lat;lon;timestamp;pressure;altitude;pressure_sealevel;temperature;humidity
76054;BME280;64752;48.870;9.082;2024-02-23T00:02:13;95992.03;;;6.42;93.43
76054;BME280;64752;48.870;9.082;2024-02-23T00:04:38;95997.84;;;6.45;93.47
76054;BME280;64752;48.870;9.082;2024-02-23T00:07:04;95999.50;;;6.46;93.48
76054;BME280;64752;48.870;9.082;2024-02-23T00:09:29;96011.75;;;6.41;93.82
76054;BME280;64752;48.870;9.082;2024-02-23T00:11:55;96011.88;;;6.40;93.80
76054;BME280;64752;48.870;9.082;2024-02-23T00:14:20;96002.47;;;6.39;94.01
76054;BME280;64752;48.870;9.082;2024-02-23T00:16:46;96010.41;;;6.34;94.52
76054;BME280;64752;48.870;9.082;2024-02-23T00:19:11;95997.69;;;6.48;91.48
76054;BME280;64752;48.870;9.082;2024-02-23T00:21:37;95997.44;;;6.53;90.62
76054;BME280;64752;48.870;9.082;2024-02-23T00:24:04;96019.78;;;6.52;90.31
76054;BME280;64752;48.870;9.082;2024-02-23T00:26:29;96014.63;;;6.52;90.25
76054;BME280;64752;48.870;9.082;2024-02-23T00:28:55;96011.41;;;6.49;90.34
76054;BME280;64752;48.870;9.082;2024-02-23T00:31:20;95994.94;;;6.51;88.63
76054;BME280;64752;48.870;9.082;2024-02-23T00:33:46;96027.28;;;6.57;87.32
76054;BME280;64752;48.870;9.082;2024-02-23T00:36:11;96038.25;;;6.61;86.14
76054;BME280;64752;48.870;9.082;2024-02-23T00:38:36;96055.53;;;6.59;86.65
76054;BME280;64752;48.870;9.082;2024-02-23T00:41:02;96062.56;;;6.55;86.91
76054;BME280;64752;48.870;9.082;2024-02-23T00:43:27;96063.53;;;6.52;86.60
76054;BME280;64752;48.870;9.082;2024-02-23T00:45:54;96045.09;;;6.44;86.91
76054;BME280;64752;48.870;9.082;2024-02-23T00:48:20;96039.53;;;6.52;86.37
76054;BME280;64752;48.870;9.082;2024-02-23T00:50:45;96046.53;;;6.50;85.72
76054;BME280;64752;48.870;9.082;2024-02-23T00:53:10;96035.31;;;6.51;85.53
76054;BME280;64752;48.870;9.082;2024-02-23T00:55:35;96052.59;;;6.49;86.22
76054;BME280;64752;48.870;9.082;2024-02-23T00:58:01;96052.50;;;6.50;86.23
76054;BME280;64752;48.870;9.082;2024-02-23T01:00:26;96071.38;;;6.51;85.18
76054;BME280;64752;48.870;9.082;2024-02-23T01:02:52;96080.59;;;6.55;84.99
76054;BME280;64752;48.870;9.082;2024-02-23T01:05:17;96073.63;;;6.57;83.91
76054;BME280;64752;48.870;9.082;2024-02-23T01:07:42;96077.03;;;6.57;83.91
76054;BME280;64752;48.870;9.082;2024-02-23T01:10:08;96066.44;;;6.64;82.82
76054;BME280;64752;48.870;9.082;2024-02-23T01:12:35;96075.97;;;6.62;83.30
76054;BME280;64752;48.870;9.082;2024-02-23T01:15:00;96068.25;;;6.62;83.32
76054;BME280;64752;48.870;9.082;2024-02-23T01:17:25;96064.22;;;6.56;83.85
76054;BME280;64752;48.870;9.082;2024-02-23T01:19:51;96059.69;;;6.61;83.25
76054;BME280;64752;48.870;9.082;2024-02-23T01:22:17;96048.88;;;6.54;83.39
76054;BME280;64752;48.870;9.082;2024-02-23T01:24:42;96054.91;;;6.53;84.54
76054;BME280;64752;48.870;9.082;2024-02-23T01:27:08;96066.13;;;6.52;83.66
76054;BME280;64752;48.870;9.082;2024-02-23T01:29:33;96086.81;;;6.51;84.31
76054;BME280;64752;48.870;9.082;2024-02-23T01:31:59;96071.44;;;6.49;84.57
76054;BME280;64752;48.870;9.082;2024-02-23T01:34:24;96079.69;;;6.39;86.26
76054;BME280;64752;48.870;9.082;2024-02-23T01:36:50;96078.63;;;6.43;86.03
76054;BME280;64752;48.870;9.082;2024-02-23T01:39:15;96098.31;;;6.44;86.32
76054;BME280;64752;48.870;9.082;2024-02-23T01:41:40;96090.59;;;6.44;85.37
76054;BME280;64752;48.870;9.082;2024-02-23T01:44:07;96096.44;;;6.47;85.67
76054;BME280;64752;48.870;9.082;2024-02-23T01:46:33;96095.13;;;6.39;86.86
76054;BME280;64752;48.870;9.082;2024-02-23T01:48:58;96095.91;;;6.41;87.41
76054;BME280;64752;48.870;9.082;2024-02-23T01:51:24;96105.75;;;6.32;87.51
76054;BME280;64752;48.870;9.082;2024-02-23T01:53:51;96104.81;;;6.33;87.84
76054;BME280;64752;48.870;9.082;2024-02-23T01:56:17;96104.13;;;6.30;88.59
76054;BME280;64752;48.870;9.082;2024-02-23T01:58:46;96107.03;;;6.24;89.46
76054;BME280;64752;48.870;9.082;2024-02-23T02:01:11;96101.56;;;6.30;89.52
76054;BME280;64752;48.870;9.082;2024-02-23T02:03:40;96111.88;;;6.30;90.04
76054;BME280;64752;48.870;9.082;2024-02-23T02:06:06;96111.56;;;6.18;92.76
76054;BME280;64752;48.870;9.082;2024-02-23T02:08:33;96111.16;;;6.09;94.41
76054;BME280;64752;48.870;9.082;2024-02-23T02:10:59;96111.63;;;6.00;96.12
76054;BME280;64752;48.870;9.082;2024-02-23T02:13:24;96115.47;;;5.89;97.17
76054;BME280;64752;48.870;9.082;2024-02-23T02:15:49;96119.88;;;5.87;98.28
76054;BME280;64752;48.870;9.082;2024-02-23T02:18:14;96132.09;;;5.82;98.53
76054;BME280;64752;48.870;9.082;2024-02-23T02:20:50;96140.94;;;5.76;99.83
76054;BME280;64752;48.870;9.082;2024-02-23T02:23:15;96152.28;;;5.72;99.20
76054;BME280;64752;48.870;9.082;2024-02-23T02:25:41;96143.19;;;5.65;100.00
76054;BME280;64752;48.870;9.082;2024-02-23T02:28:06;96145.88;;;5.62;100.00
76054;BME280;64752;48.870;9.082;2024-02-23T02:30:33;96151.00;;;5.62;100.00
76054;BME280;64752;48.870;9.082;2024-02-23T02:32:58;96149.38;;;5.61;100.00
76054;BME280;64752;48.870;9.082;2024-02-23T02:35:23;96140.59;;;5.65;100.00
76054;BME280;64752;48.870;9.082;2024-02-23T02:37:48;96132.47;;;5.55;100.00
76054;BME280;64752;48.870;9.082;2024-02-23T02:40:14;96133.59;;;5.50;100.00
76054;BME280;64752;48.870;9.082;2024-02-23T02:42:40;96137.88;;;5.49;100.00
76054;BME280;64752;48.870;9.082;2024-02-23T02:45:05;96131.91;;;5.49;100.00
76054;BME280;64752;48.870;9.082;2024-02-23T02:47:32;96123.31;;;5.50;100.00
76054;BME280;64752;48.870;9.082;2024-02-23T02:49:57;96122.75;;;5.43;100.00
76054;BME280;64752;48.870;9.082;2024-02-23T02:52:23;96122.47;;;5.49;100.00
76054;BME280;64752;48.870;9.082;2024-02-23T02:54:49;96122.47;;;5.49;100.00
76054;BME280;64752;48.870;9.082;2024-02-23T02:57:15;96130.94;;;5.51;100.00
76054;BME280;64752;48.870;9.082;2024-02-23T02:59:40;96123.72;;;5.40;100.00
76054;BME280;64752;48.870;9.082;2024-02-23T03:02:05;96127.88;;;5.43;100.00
76054;BME280;64752;48.870;9.082;2024-02-23T03:04:31;96121.94;;;5.43;100.00
76054;BME280;64752;48.870;9.082;2024-02-23T03:06:56;96133.84;;;5.44;100.00
76054;BME280;64752;48.870;9.082;2024-02-23T03:09:22;96138.09;;;5.45;100.00
76054;BME280;64752;48.870;9.082;2024-02-23T03:11:47;96130.88;;;5.53;98.12
76054;BME280;64752;48.870;9.082;2024-02-23T03:14:12;96130.81;;;5.54;97.04
76054;BME280;64752;48.870;9.082;2024-02-23T03:16:38;96129.75;;;5.58;95.44
76054;BME280;64752;48.870;9.082;2024-02-23T03:19:04;96141.66;;;5.61;95.12
76054;BME280;64752;48.870;9.082;2024-02-23T03:21:30;96133.38;;;5.54;96.81
76054;BME280;64752;48.870;9.082;2024-02-23T03:23:56;96119.88;;;5.49;96.33
76054;BME280;64752;48.870;9.082;2024-02-23T03:26:21;96117.31;;;5.49;95.94
76054;BME280;64752;48.870;9.082;2024-02-23T03:28:46;96115.72;;;5.47;95.46
76054;BME280;64752;48.870;9.082;2024-02-23T03:31:13;96127.41;;;5.54;92.98
76054;BME280;64752;48.870;9.082;2024-02-23T03:33:39;96131.03;;;5.50;92.74
76054;BME280;64752;48.870;9.082;2024-02-23T03:36:04;96131.91;;;5.49;92.91
76054;BME280;64752;48.870;9.082;2024-02-23T03:38:30;96124.44;;;5.44;91.75
76054;BME280;64752;48.870;9.082;2024-02-23T03:40:55;96114.31;;;5.58;89.15
76054;BME280;64752;48.870;9.082;2024-02-23T03:43:21;96115.25;;;5.57;87.87
76054;BME280;64752;48.870;9.082;2024-02-23T03:45:47;96125.78;;;5.51;88.81
76054;BME280;64752;48.870;9.082;2024-02-23T03:48:12;96156.84;;;5.47;90.43
76054;BME280;64752;48.870;9.082;2024-02-23T03:50:38;96136.94;;;5.52;88.08
76054;BME280;64752;48.870;9.082;2024-02-23T03:53:03;96135.47;;;5.46;87.34
76054;BME280;64752;48.870;9.082;2024-02-23T03:55:29;96149.28;;;5.44;86.97
76054;BME280;64752;48.870;9.082;2024-02-23T03:57:54;96156.22;;;5.41;86.57
76054;BME280;64752;48.870;9.082;2024-02-23T04:00:19;96159.09;;;5.35;87.76
76054;BME280;64752;48.870;9.082;2024-02-23T04:02:45;96163.00;;;5.24;88.53
76054;BME280;64752;48.870;9.082;2024-02-23T04:05:11;96159.47;;;5.26;87.25
76054;BME280;64752;48.870;9.082;2024-02-23T04:07:36;96162.19;;;5.23;90.56
76054;BME280;64752;48.870;9.082;2024-02-23T04:10:02;96151.53;;;5.12;89.25
76054;BME280;64752;48.870;9.082;2024-02-23T04:12:29;96148.28;;;5.08;90.12
76054;BME280;64752;48.870;9.082;2024-02-23T04:14:56;96162.16;;;5.04;88.63
76054;BME280;64752;48.870;9.082;2024-02-23T04:17:21;96171.31;;;5.10;88.36
76054;BME280;64752;48.870;9.082;2024-02-23T04:19:47;96166.25;;;5.08;88.09
76054;BME280;64752;48.870;9.082;2024-02-23T04:22:12;96154.69;;;4.98;88.72
76054;BME280;64752;48.870;9.082;2024-02-23T04:24:38;96161.25;;;4.85;90.17
76054;BME280;64752;48.870;9.082;2024-02-23T04:27:05;96162.53;;;4.95;86.38
76054;BME280;64752;48.870;9.082;2024-02-23T04:29:30;96164.97;;;4.98;86.05
76054;BME280;64752;48.870;9.082;2024-02-23T04:31:57;96159.13;;;4.94;86.44
76054;BME280;64752;48.870;9.082;2024-02-23T04:34:22;96157.06;;;5.02;83.46
76054;BME280;64752;48.870;9.082;2024-02-23T04:36:48;96148.28;;;5.08;83.83
76054;BME280;64752;48.870;9.082;2024-02-23T04:39:14;96147.16;;;5.14;80.39
76054;BME280;64752;48.870;9.082;2024-02-23T04:41:39;96143.97;;;5.09;81.94
76054;BME280;64752;48.870;9.082;2024-02-23T04:44:04;96148.38;;;5.05;80.38
76054;BME280;64752;48.870;9.082;2024-02-23T04:46:31;96153.75;;;5.00;82.25
76054;BME280;64752;48.870;9.082;2024-02-23T04:48:56;96163.31;;;4.97;80.40
76054;BME280;64752;48.870;9.082;2024-02-23T04:51:22;96151.03;;;5.03;80.84
76054;BME280;64752;48.870;9.082;2024-02-23T04:53:49;96150.91;;;5.07;76.92
76054;BME280;64752;48.870;9.082;2024-02-23T04:56:14;96149.38;;;5.02;77.90
76054;BME280;64752;48.870;9.082;2024-02-23T04:58:40;96151.13;;;5.02;77.49
76054;BME280;64752;48.870;9.082;2024-02-23T05:01:06;96146.09;;;4.99;78.67
76054;BME280;64752;48.870;9.082;2024-02-23T05:03:31;96149.88;;;4.90;78.78
76054;BME280;64752;48.870;9.082;2024-02-23T05:05:57;96134.75;;;4.84;79.56
76054;BME280;64752;48.870;9.082;2024-02-23T05:08:23;96141.69;;;4.82;79.46
76054;BME280;64752;48.870;9.082;2024-02-23T05:10:50;96137.59;;;4.78;79.96
76054;BME280;64752;48.870;9.082;2024-02-23T05:13:16;96140.41;;;4.72;81.10
76054;BME280;64752;48.870;9.082;2024-02-23T05:15:41;96130.50;;;4.62;83.47
76054;BME280;64752;48.870;9.082;2024-02-23T05:18:07;96134.56;;;4.68;81.41
76054;BME280;64752;48.870;9.082;2024-02-23T05:20:32;96137.59;;;4.78;80.61
76054;BME280;64752;48.870;9.082;2024-02-23T05:22:57;96137.78;;;4.73;80.60
76054;BME280;64752;48.870;9.082;2024-02-23T05:25:23;96136.94;;;4.73;81.26
76054;BME280;64752;48.870;9.082;2024-02-23T05:27:48;96136.09;;;4.72;81.53
76054;BME280;64752;48.870;9.082;2024-02-23T05:30:14;96138.53;;;4.75;81.54
76054;BME280;64752;48.870;9.082;2024-02-23T05:32:39;96138.19;;;4.83;80.55
76054;BME280;64752;48.870;9.082;2024-02-23T05:35:05;96139.88;;;4.84;79.81
76054;BME280;64752;48.870;9.082;2024-02-23T05:37:31;96142.50;;;4.82;79.47
76054;BME280;64752;48.870;9.082;2024-02-23T05:39:56;96142.34;;;4.87;79.15
76054;BME280;64752;48.870;9.082;2024-02-23T05:42:22;96145.66;;;4.89;79.51
76054;BME280;64752;48.870;9.082;2024-02-23T05:44:48;96151.81;;;4.85;79.56
76054;BME280;64752;48.870;9.082;2024-02-23T05:47:16;96157.75;;;4.87;79.17
76054;BME280;64752;48.870;9.082;2024-02-23T05:49:41;96156.94;;;4.85;80.20
76054;BME280;64752;48.870;9.082;2024-02-23T05:52:07;96151.97;;;4.82;80.34
76054;BME280;64752;48.870;9.082;2024-02-23T05:54:32;96162.63;;;4.73;81.97
76054;BME280;64752;48.870;9.082;2024-02-23T05:56:57;96164.81;;;4.61;81.90
76054;BME280;64752;48.870;9.082;2024-02-23T05:59:23;96160.16;;;4.49;83.23
76054;BME280;64752;48.870;9.082;2024-02-23T06:01:48;96165.19;;;4.52;83.54
76054;BME280;64752;48.870;9.082;2024-02-23T06:04:13;96172.44;;;4.41;84.72
76054;BME280;64752;48.870;9.082;2024-02-23T06:06:42;96169.97;;;4.39;85.40
76054;BME280;64752;48.870;9.082;2024-02-23T06:09:08;96176.81;;;4.39;86.02
76054;BME280;64752;48.870;9.082;2024-02-23T06:11:34;96182.91;;;4.36;85.46
76054;BME280;64752;48.870;9.082;2024-02-23T06:14:00;96181.00;;;4.41;85.09
76054;BME280;64752;48.870;9.082;2024-02-23T06:16:25;96190.63;;;4.36;84.59
76054;BME280;64752;48.870;9.082;2024-02-23T06:18:50;96192.09;;;4.42;84.18
76054;BME280;64752;48.870;9.082;2024-02-23T06:21:16;96204.03;;;4.43;84.89
76054;BME280;64752;48.870;9.082;2024-02-23T06:23:45;96192.47;;;4.33;84.60
76054;BME280;64752;48.870;9.082;2024-02-23T06:26:11;96200.28;;;4.30;85.47
76054;BME280;64752;48.870;9.082;2024-02-23T06:28:37;96200.41;;;4.27;86.12
76054;BME280;64752;48.870;9.082;2024-02-23T06:31:05;96209.34;;;4.16;88.81
76054;BME280;64752;48.870;9.082;2024-02-23T06:33:30;96209.19;;;3.99;91.99
76054;BME280;64752;48.870;9.082;2024-02-23T06:35:56;96215.88;;;3.79;92.20
76054;BME280;64752;48.870;9.082;2024-02-23T06:38:21;96222.03;;;3.75;92.47
76054;BME280;64752;48.870;9.082;2024-02-23T06:40:47;96211.91;;;3.71;91.95
76054;BME280;64752;48.870;9.082;2024-02-23T06:43:12;96218.16;;;3.63;92.90
76054;BME280;64752;48.870;9.082;2024-02-23T06:45:38;96209.34;;;3.71;93.92
76054;BME280;64752;48.870;9.082;2024-02-23T06:48:03;96212.50;;;3.79;93.13
76054;BME280;64752;48.870;9.082;2024-02-23T06:50:29;96221.00;;;3.79;92.33
76054;BME280;64752;48.870;9.082;2024-02-23T06:52:54;96213.69;;;3.92;92.35
76054;BME280;64752;48.870;9.082;2024-02-23T06:55:20;96213.41;;;4.00;91.16
76054;BME280;64752;48.870;9.082;2024-02-23T06:57:46;96210.66;;;4.04;91.32
76054;BME280;64752;48.870;9.082;2024-02-23T07:00:12;96219.72;;;4.13;91.50
76054;BME280;64752;48.870;9.082;2024-02-23T07:02:38;96213.81;;;4.33;92.08
76054;BME280;64752;48.870;9.082;2024-02-23T07:05:03;96210.16;;;4.39;91.39
76054;BME280;64752;48.870;9.082;2024-02-23T07:07:30;96210.84;;;4.44;94.28
76054;BME280;64752;48.870;9.082;2024-02-23T07:09:56;96217.13;;;4.57;93.69
76054;BME280;64752;48.870;9.082;2024-02-23T07:12:22;96214.66;;;4.56;92.97
76054;BME280;64752;48.870;9.082;2024-02-23T07:14:48;96219.00;;;4.54;94.57
76054;BME280;64752;48.870;9.082;2024-02-23T07:17:16;96219.25;;;4.48;95.32
76054;BME280;64752;48.870;9.082;2024-02-23T07:19:42;96228.69;;;4.47;94.57
76054;BME280;64752;48.870;9.082;2024-02-23T07:22:07;96221.75;;;4.49;94.58
76054;BME280;64752;48.870;9.082;2024-02-23T07:24:32;96230.88;;;4.56;95.79
76054;BME280;64752;48.870;9.082;2024-02-23T07:26:58;96235.09;;;4.57;95.12
76054;BME280;64752;48.870;9.082;2024-02-23T07:29:23;96223.25;;;4.55;95.54
76054;BME280;64752;48.870;9.082;2024-02-23T07:31:49;96232.16;;;4.67;97.91
76054;BME280;64752;48.870;9.082;2024-02-23T07:34:14;96225.13;;;4.72;96.61
76054;BME280;64752;48.870;9.082;2024-02-23T07:36:40;96217.94;;;4.80;95.72
76054;BME280;64752;48.870;9.082;2024-02-23T07:39:05;96224.25;;;4.93;97.11
76054;BME280;64752;48.870;9.082;2024-02-23T07:41:31;96222.94;;;5.03;96.11
76054;BME280;64752;48.870;9.082;2024-02-23T07:43:56;96220.44;;;5.22;95.30
76054;BME280;64752;48.870;9.082;2024-02-23T07:46:22;96218.97;;;5.17;93.48
76054;BME280;64752;48.870;9.082;2024-02-23T07:48:48;96215.47;;;5.38;93.18
76054;BME280;64752;48.870;9.082;2024-02-23T07:51:13;96221.25;;;5.44;90.99
76054;BME280;64752;48.870;9.082;2024-02-23T07:53:38;96213.00;;;5.37;91.39
76054;BME280;64752;48.870;9.082;2024-02-23T07:56:04;96212.53;;;5.67;90.53
76054;BME280;64752;48.870;9.082;2024-02-23T07:58:32;96210.38;;;5.76;90.43
76054;BME280;64752;48.870;9.082;2024-02-23T08:00:57;96213.88;;;5.75;92.22
76054;BME280;64752;48.870;9.082;2024-02-23T08:03:23;96219.84;;;5.76;90.65
76054;BME280;64752;48.870;9.082;2024-02-23T08:05:48;96229.72;;;5.66;90.78
76054;BME280;64752;48.870;9.082;2024-02-23T08:08:13;96228.56;;;5.53;91.90
76054;BME280;64752;48.870;9.082;2024-02-23T08:10:39;96227.84;;;5.49;91.16
76054;BME280;64752;48.870;9.082;2024-02-23T08:13:04;96236.88;;;5.39;90.96
76054;BME280;64752;48.870;9.082;2024-02-23T08:15:29;96241.16;;;5.59;90.34
76054;BME280;64752;48.870;9.082;2024-02-23T08:17:55;96235.50;;;5.51;90.73
76054;BME280;64752;48.870;9.082;2024-02-23T08:20:21;96230.94;;;5.57;90.93
76054;BME280;64752;48.870;9.082;2024-02-23T08:22:46;96229.72;;;5.66;89.25
76054;BME280;64752;48.870;9.082;2024-02-23T08:25:11;96227.19;;;5.65;88.77
76054;BME280;64752;48.870;9.082;2024-02-23T08:27:37;96219.72;;;5.98;87.85
76054;BME280;64752;48.870;9.082;2024-02-23T08:30:03;96213.19;;;6.46;86.39
76054;BME280;64752;48.870;9.082;2024-02-23T08:32:29;96219.66;;;6.72;83.39
76054;BME280;64752;48.870;9.082;2024-02-23T08:34:54;96212.59;;;6.59;83.37
76054;BME280;64752;48.870;9.082;2024-02-23T08:37:27;96202.31;;;6.76;83.41
76054;BME280;64752;48.870;9.082;2024-02-23T08:39:52;96194.81;;;6.71;84.94
76054;BME280;64752;48.870;9.082;2024-02-23T08:42:18;96197.91;;;6.61;85.54
76054;BME280;64752;48.870;9.082;2024-02-23T08:44:43;96198.91;;;6.75;85.84
76054;BME280;64752;48.870;9.082;2024-02-23T08:47:09;96204.44;;;6.68;86.62
76054;BME280;64752;48.870;9.082;2024-02-23T08:49:34;96200.59;;;6.77;86.60
76054;BME280;64752;48.870;9.082;2024-02-23T08:51:59;96203.22;;;6.75;85.11
76054;BME280;64752;48.870;9.082;2024-02-23T08:54:25;96204.59;;;6.82;85.40
76054;BME280;64752;48.870;9.082;2024-02-23T08:56:50;96207.00;;;6.85;84.60
76054;BME280;64752;48.870;9.082;2024-02-23T08:59:16;96212.91;;;6.87;82.67
76054;BME280;64752;48.870;9.082;2024-02-23T09:01:41;96205.34;;;6.84;82.99
76054;BME280;64752;48.870;9.082;2024-02-23T09:04:06;96213.00;;;6.86;81.45
76054;BME280;64752;48.870;9.082;2024-02-23T09:06:32;96215.72;;;6.83;81.77
76054;BME280;64752;48.870;9.082;2024-02-23T09:08:58;96214.91;;;6.82;81.91
76054;BME280;64752;48.870;9.082;2024-02-23T09:11:23;96217.31;;;6.68;81.63
76054;BME280;64752;48.870;9.082;2024-02-23T09:13:49;96228.75;;;6.80;81.21
76054;BME280;64752;48.870;9.082;2024-02-23T09:16:14;96224.41;;;6.63;81.01
76054;BME280;64752;48.870;9.082;2024-02-23T09:18:40;96227.75;;;6.47;80.45
76054;BME280;64752;48.870;9.082;2024-02-23T09:21:05;96225.53;;;6.40;80.60
76054;BME280;64752;48.870;9.082;2024-02-23T09:23:31;96230.53;;;6.43;80.42
76054;BME280;64752;48.870;9.082;2024-02-23T09:25:57;96228.69;;;6.45;79.02
76054;BME280;64752;48.870;9.082;2024-02-23T09:28:22;96226.97;;;6.45;78.48
76054;BME280;64752;48.870;9.082;2024-02-23T09:30:48;96220.97;;;6.99;77.95
76054;BME280;64752;48.870;9.082;2024-02-23T09:33:13;96222.19;;;7.91;74.25
76054;BME280;64752;48.870;9.082;2024-02-23T09:35:39;96223.72;;;8.59;70.05
76054;BME280;64752;48.870;9.082;2024-02-23T09:38:04;96225.34;;;9.06;67.34
76054;BME280;64752;48.870;9.082;2024-02-23T09:40:30;96223.16;;;9.29;65.09
76054;BME280;64752;48.870;9.082;2024-02-23T09:42:57;96209.63;;;9.54;63.25
76054;BME280;64752;48.870;9.082;2024-02-23T09:45:24;96221.28;;;9.02;64.29
76054;BME280;64752;48.870;9.082;2024-02-23T09:47:51;96212.38;;;9.51;63.09
76054;BME280;64752;48.870;9.082;2024-02-23T09:50:18;96215.34;;;9.00;64.86
76054;BME280;64752;48.870;9.082;2024-02-23T09:52:46;96220.88;;;9.39;64.46
76054;BME280;64752;48.870;9.082;2024-02-23T09:55:12;96224.69;;;9.62;63.71
76054;BME280;64752;48.870;9.082;2024-02-23T09:57:38;96224.72;;;9.32;63.55
76054;BME280;64752;48.870;9.082;2024-02-23T10:00:04;96219.66;;;8.85;64.75
76054;BME280;64752;48.870;9.082;2024-02-23T10:02:31;96233.53;;;8.68;65.15
76054;BME280;64752;48.870;9.082;2024-02-23T10:04:58;96237.75;;;8.85;65.00
76054;BME280;64752;48.870;9.082;2024-02-23T10:07:25;96238.19;;;9.22;65.52
76054;BME280;64752;48.870;9.082;2024-02-23T10:09:50;96226.78;;;8.96;64.40
76054;BME280;64752;48.870;9.082;2024-02-23T10:12:16;96240.59;;;9.11;65.60
76054;BME280;64752;48.870;9.082;2024-02-23T10:14:41;96234.75;;;9.07;63.98
76054;BME280;64752;48.870;9.082;2024-02-23T10:17:07;96220.78;;;8.96;64.00
76054;BME280;64752;48.870;9.082;2024-02-23T10:19:33;96226.84;;;9.11;64.60
76054;BME280;64752;48.870;9.082;2024-02-23T10:21:59;96224.88;;;8.54;65.38
76054;BME280;64752;48.870;9.082;2024-02-23T10:24:24;96230.88;;;8.70;65.15
76054;BME280;64752;48.870;9.082;2024-02-23T10:26:51;96251.88;;;8.16;67.41
76054;BME280;64752;48.870;9.082;2024-02-23T10:29:16;96249.84;;;8.21;67.73
76054;BME280;64752;48.870;9.082;2024-02-23T10:31:43;96246.31;;;8.56;67.86
76054;BME280;64752;48.870;9.082;2024-02-23T10:34:10;96239.72;;;10.13;64.06
76054;BME280;64752;48.870;9.082;2024-02-23T10:36:41;96234.41;;;10.43;59.23
76054;BME280;64752;48.870;9.082;2024-02-23T10:39:11;96232.44;;;11.78;56.15
76054;BME280;64752;48.870;9.082;2024-02-23T10:41:46;96233.41;;;12.03;55.10
76054;BME280;64752;48.870;9.082;2024-02-23T10:44:13;96237.66;;;11.91;55.51
76054;BME280;64752;48.870;9.082;2024-02-23T10:46:41;96234.09;;;12.18;55.05
76054;BME280;64752;48.870;9.082;2024-02-23T10:49:07;96231.63;;;11.65;55.49
76054;BME280;64752;48.870;9.082;2024-02-23T10:51:33;96238.69;;;11.37;55.00
76054;BME280;64752;48.870;9.082;2024-02-23T10:53:59;96235.09;;;11.65;55.26
76054;BME280;64752;48.870;9.082;2024-02-23T10:56:25;96226.34;;;11.92;54.90
76054;BME280;64752;48.870;9.082;2024-02-23T10:58:52;96229.31;;;12.24;53.41
76054;BME280;64752;48.870;9.082;2024-02-23T11:01:18;96226.81;;;12.23;52.93
76054;BME280;64752;48.870;9.082;2024-02-23T11:03:46;96220.94;;;12.08;53.57
76054;BME280;64752;48.870;9.082;2024-02-23T11:06:15;96219.94;;;12.22;52.66
76054;BME280;64752;48.870;9.082;2024-02-23T11:08:41;96217.22;;;11.48;53.59
76054;BME280;64752;48.870;9.082;2024-02-23T11:11:11;96205.09;;;10.83;56.67
76054;BME280;64752;48.870;9.082;2024-02-23T11:13:38;96206.59;;;10.59;56.90
76054;BME280;64752;48.870;9.082;2024-02-23T11:16:07;96189.16;;;10.61;57.43
76054;BME280;64752;48.870;9.082;2024-02-23T11:18:39;96196.59;;;10.93;56.02
76054;BME280;64752;48.870;9.082;2024-02-23T11:21:05;96195.84;;;10.78;55.92
76054;BME280;64752;48.870;9.082;2024-02-23T11:23:48;96194.41;;;10.87;56.82
76054;BME280;64752;48.870;9.082;2024-02-23T11:26:14;96192.88;;;10.30;57.55
76054;BME280;64752;48.870;9.082;2024-02-23T11:31:18;96197.06;;;10.18;58.58
76054;BME280;64752;48.870;9.082;2024-02-23T11:33:52;96206.50;;;10.34;58.73
76054;BME280;64752;48.870;9.082;2024-02-23T11:36:31;96204.88;;;10.46;58.81
76054;BME280;64752;48.870;9.082;2024-02-23T11:38:58;96198.03;;;10.45;57.97
76054;BME280;64752;48.870;9.082;2024-02-23T11:41:24;96191.81;;;10.47;57.40
76054;BME280;64752;48.870;9.082;2024-02-23T11:43:51;96186.34;;;10.52;58.38
76054;BME280;64752;48.870;9.082;2024-02-23T11:46:17;96192.94;;;10.43;58.27
76054;BME280;64752;48.870;9.082;2024-02-23T11:48:43;96201.06;;;10.10;59.83
76054;BME280;64752;48.870;9.082;2024-02-23T11:51:18;96185.53;;;9.95;59.52
76054;BME280;64752;48.870;9.082;2024-02-23T11:53:44;96195.88;;;10.10;59.50
76054;BME280;64752;48.870;9.082;2024-02-23T11:56:10;96189.00;;;9.38;59.88
76054;BME280;64752;48.870;9.082;2024-02-23T11:58:36;96191.75;;;9.35;60.16
76054;BME280;64752;48.870;9.082;2024-02-23T12:01:02;96179.94;;;9.31;60.46
76054;BME280;64752;48.870;9.082;2024-02-23T12:03:31;96179.22;;;9.58;60.46
76054;BME280;64752;48.870;9.082;2024-02-23T12:06:02;96181.16;;;9.54;58.75
76054;BME280;64752;48.870;9.082;2024-02-23T12:08:30;96174.78;;;9.74;59.20
76054;BME280;64752;48.870;9.082;2024-02-23T12:11:05;96181.03;;;9.84;60.30
76054;BME280;64752;48.870;9.082;2024-02-23T12:13:33;96168.31;;;10.50;58.68
76054;BME280;64752;48.870;9.082;2024-02-23T12:15:59;96172.47;;;11.18;56.60
76054;BME280;64752;48.870;9.082;2024-02-23T12:18:25;96170.19;;;11.01;56.47
76054;BME280;64752;48.870;9.082;2024-02-23T12:21:04;96167.75;;;10.45;57.05
76054;BME280;64752;48.870;9.082;2024-02-23T12:23:39;96171.84;;;10.08;57.64
76054;BME280;64752;48.870;9.082;2024-02-23T12:26:05;96170.59;;;9.86;58.82
76054;BME280;64752;48.870;9.082;2024-02-23T12:28:30;96157.31;;;9.63;58.53
76054;BME280;64752;48.870;9.082;2024-02-23T12:31:03;96153.25;;;10.01;58.68
76054;BME280;64752;48.870;9.082;2024-02-23T12:33:30;96162.84;;;9.72;58.37
76054;BME280;64752;48.870;9.082;2024-02-23T12:35:58;96164.84;;;9.81;59.46
76054;BME280;64752;48.870;9.082;2024-02-23T12:38:24;96165.72;;;9.67;59.83
76054;BME280;64752;48.870;9.082;2024-02-23T12:40:50;96168.09;;;9.70;60.32
76054;BME280;64752;48.870;9.082;2024-02-23T12:43:16;96165.81;;;9.51;59.46
76054;BME280;64752;48.870;9.082;2024-02-23T12:45:42;96166.72;;;9.50;59.55
76054;BME280;64752;48.870;9.082;2024-02-23T12:48:09;96165.00;;;9.51;59.45
76054;BME280;64752;48.870;9.082;2024-02-23T12:50:34;96164.69;;;9.41;60.10
76054;BME280;64752;48.870;9.082;2024-02-23T12:52:59;96163.88;;;9.69;59.65
76054;BME280;64752;48.870;9.082;2024-02-23T12:55:26;96168.00;;;9.72;60.11
76054;BME280;64752;48.870;9.082;2024-02-23T12:57:51;96165.41;;;9.86;59.49
76054;BME280;64752;48.870;9.082;2024-02-23T13:00:17;96163.94;;;9.68;59.21
76054;BME280;64752;48.870;9.082;2024-02-23T13:02:43;96168.22;;;9.54;59.82
76054;BME280;64752;48.870;9.082;2024-02-23T13:05:08;96160.28;;;9.29;60.20
76054;BME280;64752;48.870;9.082;2024-02-23T13:07:33;96166.53;;;9.39;61.12